createdAt,value
2019-03-24T00:00:12.468Z,10.50
2019-03-24T00:02:43.360Z,10.50
2019-03-24T00:05:12.652Z,10.40
2019-03-24T00:07:41.933Z,10.40
2019-03-24T00:10:12.149Z,10.40
2019-03-24T00:12:41.438Z,10.40
2019-03-24T00:15:11.474Z,10.30
2019-03-24T00:17:40.757Z,10.30
2019-03-24T00:20:10.495Z,10.30
2019-03-24T00:22:39.827Z,10.30
2019-03-24T00:25:09.348Z,10.30
2019-03-24T00:27:38.620Z,10.30
2019-03-24T00:30:08.874Z,10.30
2019-03-24T00:32:38.120Z,10.30
2019-03-24T00:35:07.472Z,10.20
2019-03-24T00:37:36.741Z,10.20
2019-03-24T00:40:07.164Z,10.20
2019-03-24T00:42:36.438Z,10.20
2019-03-24T00:45:07.831Z,10.10
2019-03-24T00:47:37.109Z,10.10
2019-03-24T00:50:08.141Z,10.10
2019-03-24T00:52:37.419Z,10.10
2019-03-24T00:55:07.352Z,10.00
2019-03-24T00:57:37.750Z,10.00
2019-03-24T01:00:10.060Z,10.00
2019-03-24T01:02:39.325Z,9.90
2019-03-24T01:05:09.778Z,9.90
2019-03-24T01:07:39.208Z,9.90
2019-03-24T01:10:09.628Z,9.80
2019-03-24T01:12:38.897Z,9.80
2019-03-24T01:15:08.609Z,9.80
2019-03-24T01:17:38.762Z,9.80
2019-03-24T01:20:08.470Z,9.80
2019-03-24T01:22:37.744Z,9.70
2019-03-24T01:25:07.362Z,9.70
2019-03-24T01:27:36.639Z,9.70
2019-03-24T01:30:07.833Z,9.70
2019-03-24T01:32:38.076Z,9.70
2019-03-24T01:35:07.914Z,9.70
2019-03-24T01:37:37.222Z,9.70
2019-03-24T01:40:07.125Z,9.70
2019-03-24T01:42:36.404Z,9.70
2019-03-24T01:45:10.869Z,9.70
2019-03-24T01:47:40.150Z,9.70
2019-03-24T01:50:10.362Z,9.70
2019-03-24T01:52:39.639Z,9.60
2019-03-24T01:55:09.240Z,9.60
2019-03-24T01:57:38.519Z,9.60
2019-03-24T02:00:08.156Z,9.60
2019-03-24T02:02:37.435Z,9.60
2019-03-24T02:05:07.739Z,9.50
2019-03-24T02:07:37.015Z,9.50
2019-03-24T02:10:07.824Z,9.50
2019-03-24T02:12:37.100Z,9.50
2019-03-24T02:15:07.989Z,9.50
2019-03-24T02:17:38.229Z,9.50
2019-03-24T02:20:09.782Z,9.50
2019-03-24T02:22:39.055Z,9.40
2019-03-24T02:25:08.452Z,9.40
2019-03-24T02:27:37.732Z,9.40
2019-03-24T02:30:08.543Z,9.50
2019-03-24T02:32:37.817Z,9.50
2019-03-24T02:35:07.640Z,9.50
2019-03-24T02:37:36.905Z,9.50
2019-03-24T02:40:08.624Z,9.40
2019-03-24T02:42:37.902Z,9.40
2019-03-24T02:45:07.930Z,9.40
2019-03-24T02:47:38.168Z,9.40
2019-03-24T02:50:08.859Z,9.40
2019-03-24T02:52:38.120Z,9.40
2019-03-24T02:55:07.932Z,9.40
2019-03-24T02:57:38.184Z,9.40
2019-03-24T03:00:09.123Z,9.40
2019-03-24T03:02:38.435Z,9.40
2019-03-24T03:05:08.953Z,9.40
2019-03-24T03:07:38.233Z,9.30
2019-03-24T03:10:08.245Z,9.30
2019-03-24T03:12:37.517Z,9.30
2019-03-24T03:15:08.136Z,9.30
2019-03-24T03:17:37.474Z,9.30
2019-03-24T03:20:08.909Z,9.20
2019-03-24T03:22:38.264Z,9.20
2019-03-24T03:25:08.250Z,9.20
2019-03-24T03:27:37.517Z,9.10
2019-03-24T03:30:08.838Z,9.10
2019-03-24T03:32:38.253Z,9.10
2019-03-24T03:35:08.899Z,9.10
2019-03-24T03:37:38.222Z,9.10
2019-03-24T03:40:08.235Z,9.10
2019-03-24T03:42:39.160Z,9.10
2019-03-24T03:45:10.079Z,9.00
2019-03-24T03:47:40.598Z,9.00
2019-03-24T03:50:10.381Z,9.00
2019-03-24T03:52:39.644Z,8.90
2019-03-24T03:55:09.052Z,8.90
2019-03-24T03:57:38.393Z,8.90
2019-03-24T04:00:08.510Z,8.90
2019-03-24T04:02:37.778Z,8.90
2019-03-24T04:05:07.127Z,8.90
2019-03-24T04:07:36.391Z,8.90
2019-03-24T04:10:05.913Z,8.90
2019-03-24T04:12:35.181Z,8.90
2019-03-24T04:15:06.803Z,8.90
2019-03-24T04:17:36.069Z,8.90
2019-03-24T04:20:06.788Z,8.80
2019-03-24T04:22:36.100Z,8.80
2019-03-24T04:25:06.585Z,8.80
2019-03-24T04:27:35.889Z,8.80
2019-03-24T04:30:07.409Z,8.80
2019-03-24T04:32:36.685Z,8.80
2019-03-24T04:35:07.800Z,8.80
2019-03-24T04:37:37.073Z,8.80
2019-03-24T04:40:06.888Z,8.70
2019-03-24T04:42:36.161Z,8.70
2019-03-24T04:45:06.190Z,8.70
2019-03-24T04:47:35.475Z,8.60
2019-03-24T04:50:07.081Z,8.60
2019-03-24T04:52:36.352Z,8.50
2019-03-24T04:55:06.863Z,8.50
2019-03-24T04:57:36.137Z,8.50
2019-03-24T05:00:08.631Z,8.50
2019-03-24T05:02:37.970Z,8.50
2019-03-24T05:05:07.697Z,8.50
2019-03-24T05:07:37.030Z,8.40
2019-03-24T05:10:08.895Z,8.50
2019-03-24T05:12:38.158Z,8.50
2019-03-24T05:15:07.437Z,8.50
2019-03-24T05:17:36.720Z,8.50
2019-03-24T05:20:07.123Z,8.40
2019-03-24T05:22:36.406Z,8.40
2019-03-24T05:25:05.740Z,8.40
2019-03-24T05:27:35.020Z,8.40
2019-03-24T05:30:06.529Z,8.40
2019-03-24T05:32:35.808Z,8.40
2019-03-24T05:35:06.615Z,8.40
2019-03-24T05:37:35.893Z,8.40
2019-03-24T05:40:05.524Z,8.40
2019-03-24T05:42:34.834Z,8.40
2019-03-24T05:45:07.062Z,8.40
2019-03-24T05:47:37.675Z,8.40
2019-03-24T05:50:10.383Z,8.40
2019-03-24T05:52:39.648Z,8.40
2019-03-24T05:55:08.980Z,8.40
2019-03-24T05:57:38.260Z,8.40
2019-03-24T06:00:08.564Z,8.40
2019-03-24T06:02:37.907Z,8.40
2019-03-24T06:05:07.523Z,8.40
2019-03-24T06:07:36.797Z,8.40
2019-03-24T06:10:07.604Z,8.40
2019-03-24T06:12:36.881Z,8.40
2019-03-24T06:15:08.386Z,8.40
2019-03-24T06:17:47.334Z,8.40
2019-03-24T06:20:09.150Z,8.40
2019-03-24T06:22:38.506Z,8.40
2019-03-24T06:25:07.908Z,8.40
2019-03-24T06:27:37.190Z,8.40
2019-03-24T06:30:07.810Z,8.40
2019-03-24T06:32:37.079Z,8.40
2019-03-24T06:35:06.784Z,8.40
2019-03-24T06:37:36.297Z,8.40
2019-03-24T06:40:06.909Z,8.40
2019-03-24T06:42:36.184Z,8.40
2019-03-24T06:45:07.384Z,8.40
2019-03-24T06:47:36.671Z,8.40
2019-03-24T06:50:07.653Z,8.40
2019-03-24T06:52:36.929Z,8.40
2019-03-24T06:55:06.337Z,8.30
2019-03-24T06:57:35.653Z,8.30
2019-03-24T07:00:07.141Z,8.30
2019-03-24T07:02:36.409Z,8.40
2019-03-24T07:05:06.330Z,8.30
2019-03-24T07:07:36.569Z,8.40
2019-03-24T07:10:09.132Z,8.40
2019-03-24T07:12:38.467Z,8.40
2019-03-24T07:15:08.272Z,8.40
2019-03-24T07:17:37.753Z,8.50
2019-03-24T07:20:07.444Z,8.50
2019-03-24T07:22:36.709Z,8.50
2019-03-24T07:25:06.429Z,8.50
2019-03-24T07:27:35.701Z,8.50
2019-03-24T07:30:09.271Z,8.50
2019-03-24T07:32:38.629Z,8.50
2019-03-24T07:35:08.533Z,8.60
2019-03-24T07:37:37.801Z,8.60
2019-03-24T07:40:08.231Z,8.60
2019-03-24T07:42:37.576Z,8.60
2019-03-24T07:45:08.694Z,8.70
2019-03-24T07:47:37.969Z,8.70
2019-03-24T07:50:09.193Z,8.80
2019-03-24T07:52:38.472Z,8.80
2019-03-24T07:55:07.906Z,8.80
2019-03-24T07:57:37.172Z,8.90
2019-03-24T08:00:08.888Z,8.90
2019-03-24T08:02:38.173Z,8.90
2019-03-24T08:05:07.612Z,8.90
2019-03-24T08:07:36.876Z,8.90
2019-03-24T08:10:07.803Z,8.90
2019-03-24T08:12:37.107Z,8.90
2019-03-24T08:15:06.660Z,9.00
2019-03-24T08:17:35.932Z,9.00
2019-03-24T08:20:06.757Z,9.00
2019-03-24T08:22:36.025Z,9.00
2019-03-24T08:25:06.537Z,9.00
2019-03-24T08:27:36.779Z,9.00
2019-03-24T08:30:07.295Z,9.00
2019-03-24T08:32:36.568Z,9.00
2019-03-24T08:35:07.156Z,9.00
2019-03-24T08:37:36.597Z,9.00
2019-03-24T08:40:07.249Z,9.00
2019-03-24T08:42:36.559Z,9.10
2019-03-24T08:45:06.202Z,9.10
2019-03-24T08:47:35.479Z,9.20
2019-03-24T08:50:06.913Z,9.30
2019-03-24T08:52:36.177Z,9.40
2019-03-24T08:55:07.377Z,9.50
2019-03-24T08:57:36.652Z,9.60
2019-03-24T09:00:06.685Z,9.60
2019-03-24T09:02:35.964Z,9.70
2019-03-24T09:05:06.385Z,9.70
2019-03-24T09:07:35.664Z,9.80
2019-03-24T09:10:06.573Z,9.70
2019-03-24T09:12:35.848Z,9.70
2019-03-24T09:15:07.912Z,9.80
2019-03-24T09:17:38.263Z,9.80
2019-03-24T09:20:09.002Z,9.80
2019-03-24T09:22:38.317Z,9.80
2019-03-24T09:25:07.927Z,9.80
2019-03-24T09:27:37.195Z,9.90
2019-03-24T09:30:09.582Z,9.90
2019-03-24T09:32:38.842Z,9.90
2019-03-24T09:35:08.111Z,10.00
2019-03-24T09:37:37.389Z,10.00
2019-03-24T09:40:09.181Z,10.10
2019-03-24T09:42:38.480Z,10.20
2019-03-24T09:45:07.992Z,10.30
2019-03-24T09:47:37.283Z,10.40
2019-03-24T09:50:06.614Z,10.40
2019-03-24T09:52:35.897Z,10.50
2019-03-24T09:55:06.719Z,10.60
2019-03-24T09:57:35.992Z,10.60
2019-03-24T10:00:06.526Z,10.60
2019-03-24T10:02:35.801Z,10.70
2019-03-24T10:05:06.228Z,10.80
2019-03-24T10:07:35.561Z,10.80
2019-03-24T10:10:06.576Z,10.80
2019-03-24T10:12:35.836Z,10.80
2019-03-24T10:15:05.968Z,10.80
2019-03-24T10:17:35.252Z,10.90
2019-03-24T10:20:06.113Z,10.90
2019-03-24T10:22:35.504Z,10.90
2019-03-24T10:25:06.624Z,10.90
2019-03-24T10:27:35.906Z,10.80
2019-03-24T10:30:07.937Z,10.90
2019-03-24T10:32:37.225Z,10.80
2019-03-24T10:35:07.474Z,10.80
2019-03-24T10:37:36.876Z,10.90
2019-03-24T10:40:07.989Z,10.90
2019-03-24T10:42:37.452Z,10.90
2019-03-24T10:45:07.651Z,10.90
2019-03-24T10:47:36.920Z,11.00
2019-03-24T10:50:08.508Z,11.10
2019-03-24T10:52:37.954Z,11.10
2019-03-24T10:55:09.433Z,11.20
2019-03-24T10:57:38.878Z,11.40
2019-03-24T11:00:11.236Z,11.50
2019-03-24T11:02:40.596Z,11.60
2019-03-24T11:05:11.085Z,11.60
2019-03-24T11:07:41.333Z,11.70
2019-03-24T11:10:11.849Z,11.80
2019-03-24T11:12:41.125Z,11.90
2019-03-24T11:15:10.761Z,12.00
2019-03-24T11:17:40.037Z,12.00
2019-03-24T11:20:09.955Z,12.10
2019-03-24T11:22:39.225Z,12.10
2019-03-24T11:25:10.347Z,12.20
2019-03-24T11:27:39.620Z,12.20
2019-03-24T11:30:13.981Z,12.20
2019-03-24T11:32:43.257Z,12.30
2019-03-24T11:35:12.813Z,12.50
2019-03-24T11:37:42.085Z,12.50
2019-03-24T11:40:11.900Z,12.60
2019-03-24T11:42:41.168Z,12.70
2019-03-24T11:45:11.296Z,12.70
2019-03-24T11:47:40.568Z,12.80
2019-03-24T11:50:10.438Z,12.80
2019-03-24T11:52:39.712Z,12.80
2019-03-24T11:55:10.335Z,12.80
2019-03-24T11:57:39.615Z,12.80
2019-03-24T12:00:17.494Z,12.80
2019-03-24T12:02:46.754Z,12.90
2019-03-24T12:05:16.048Z,13.00
2019-03-24T12:07:45.372Z,13.00
2019-03-24T12:10:16.291Z,13.10
2019-03-24T12:12:45.560Z,13.30
2019-03-24T12:15:15.816Z,13.40
2019-03-24T12:17:45.080Z,13.40
2019-03-24T12:20:14.531Z,13.30
2019-03-24T12:22:43.820Z,13.30
2019-03-24T12:25:13.169Z,13.20
2019-03-24T12:27:43.409Z,13.30
2019-03-24T12:30:13.933Z,13.20
2019-03-24T12:32:43.209Z,13.20
2019-03-24T12:35:12.493Z,13.30
2019-03-24T12:37:41.764Z,13.30
2019-03-24T12:40:12.254Z,13.30
2019-03-24T12:42:41.521Z,13.40
2019-03-24T12:45:12.948Z,13.50
2019-03-24T12:47:42.271Z,13.50
2019-03-24T12:50:12.191Z,13.60
2019-03-24T12:52:41.502Z,13.50
2019-03-24T12:55:11.220Z,13.50
2019-03-24T12:57:40.492Z,13.60
2019-03-24T13:00:12.622Z,13.60
2019-03-24T13:02:41.975Z,13.70
2019-03-24T13:05:13.360Z,13.80
2019-03-24T13:07:42.715Z,13.80
2019-03-24T13:10:12.244Z,13.80
2019-03-24T13:12:41.529Z,13.80
2019-03-24T13:15:11.037Z,13.70
2019-03-24T13:17:40.320Z,13.70
2019-03-24T13:20:19.782Z,13.90
2019-03-24T13:22:40.934Z,13.90
2019-03-24T13:25:10.200Z,13.90
2019-03-24T13:27:39.485Z,13.90
2019-03-24T13:30:09.140Z,14.00
2019-03-24T13:32:38.413Z,13.90
2019-03-24T13:35:07.704Z,13.70
2019-03-24T13:37:36.980Z,13.60
2019-03-24T13:40:06.437Z,13.60
2019-03-24T13:42:35.712Z,13.60
2019-03-24T13:45:06.816Z,13.50
2019-03-24T13:47:36.104Z,13.60
2019-03-24T13:50:06.532Z,13.70
2019-03-24T13:52:35.816Z,13.90
2019-03-24T13:55:06.624Z,14.00
2019-03-24T13:57:35.972Z,13.90
2019-03-24T14:00:06.984Z,13.70
2019-03-24T14:02:36.261Z,13.50
2019-03-24T14:05:05.607Z,13.30
2019-03-24T14:07:34.946Z,13.30
2019-03-24T14:10:08.366Z,13.20
2019-03-24T14:12:37.653Z,13.20
2019-03-24T14:15:07.160Z,13.20
2019-03-24T14:17:36.812Z,13.10
2019-03-24T14:20:07.448Z,13.30
2019-03-24T14:22:36.696Z,13.50
2019-03-24T14:25:06.928Z,13.60
2019-03-24T14:27:36.219Z,13.70
2019-03-24T14:30:09.109Z,13.70
2019-03-24T14:32:39.477Z,13.70
2019-03-24T14:35:08.992Z,14.00
2019-03-24T14:37:38.409Z,14.60
2019-03-24T14:40:08.320Z,15.20
2019-03-24T14:42:49.812Z,15.90
2019-03-24T14:45:19.084Z,16.30
2019-03-24T14:47:48.381Z,16.50
2019-03-24T14:50:17.658Z,16.70
2019-03-24T14:52:46.934Z,16.90
2019-03-24T14:55:16.214Z,17.20
2019-03-24T14:57:45.476Z,17.40
2019-03-24T15:00:17.860Z,17.60
2019-03-24T15:02:47.129Z,17.70
2019-03-24T15:05:16.426Z,17.70
2019-03-24T15:07:45.672Z,17.50
2019-03-24T15:10:15.126Z,17.20
2019-03-24T15:12:44.387Z,17.10
2019-03-24T15:15:13.688Z,16.80
2019-03-24T15:17:42.956Z,16.60
2019-03-24T15:20:12.232Z,16.30
2019-03-24T15:22:41.493Z,16.00
2019-03-24T15:25:10.843Z,15.90
2019-03-24T15:27:40.111Z,15.80
2019-03-24T15:30:11.030Z,15.70
2019-03-24T15:32:40.300Z,15.50
2019-03-24T15:35:10.119Z,15.40
2019-03-24T15:37:39.380Z,15.30
2019-03-24T15:40:08.897Z,15.10
2019-03-24T15:42:38.164Z,15.10
2019-03-24T15:45:08.688Z,15.00
2019-03-24T15:47:37.955Z,15.00
2019-03-24T15:50:08.369Z,15.00
2019-03-24T15:52:37.704Z,14.90
2019-03-24T15:55:07.325Z,14.80
2019-03-24T15:57:36.592Z,14.50
2019-03-24T16:00:08.117Z,14.30
2019-03-24T16:02:37.412Z,14.00
2019-03-24T16:05:06.829Z,13.80
2019-03-24T16:07:36.096Z,13.70
2019-03-24T16:10:07.309Z,13.40
2019-03-24T16:12:36.658Z,13.30
2019-03-24T16:15:07.845Z,13.10
2019-03-24T16:17:37.110Z,13.00
2019-03-24T16:20:08.028Z,12.90
2019-03-24T16:22:37.298Z,12.70
2019-03-24T16:25:07.611Z,12.60
2019-03-24T16:27:36.881Z,12.40
2019-03-24T16:30:07.124Z,12.20
2019-03-24T16:32:36.391Z,12.00
2019-03-24T16:35:06.108Z,11.80
2019-03-24T16:37:35.559Z,11.70
2019-03-24T16:40:08.194Z,11.70
2019-03-24T16:42:37.469Z,11.60
2019-03-24T16:45:06.908Z,11.50
2019-03-24T16:47:36.196Z,11.40
2019-03-24T16:50:07.428Z,11.30
2019-03-24T16:52:36.724Z,11.20
2019-03-24T16:55:08.709Z,11.20
2019-03-24T16:57:37.988Z,11.10
2019-03-24T17:00:07.618Z,11.00
2019-03-24T17:02:36.960Z,11.00
2019-03-24T17:05:07.895Z,10.90
2019-03-24T17:07:37.172Z,10.90
2019-03-24T17:10:09.959Z,10.80
2019-03-24T17:12:39.314Z,10.80
2019-03-24T17:15:10.026Z,10.80
2019-03-24T17:17:39.614Z,10.70
2019-03-24T17:20:09.716Z,10.70
2019-03-24T17:22:39.009Z,10.60
2019-03-24T17:25:08.717Z,10.60
2019-03-24T17:27:38.004Z,10.50
2019-03-24T17:30:10.181Z,10.40
2019-03-24T17:32:40.561Z,10.40
2019-03-24T17:35:10.560Z,10.30
2019-03-24T17:37:39.833Z,10.30
2019-03-24T17:40:12.454Z,10.30
2019-03-24T17:42:41.898Z,10.20
2019-03-24T17:45:12.309Z,10.10
2019-03-24T17:47:41.589Z,10.10
2019-03-24T17:50:12.175Z,10.00
2019-03-24T17:52:41.625Z,10.00
2019-03-24T17:55:11.932Z,9.90
2019-03-24T17:57:41.210Z,9.90
2019-03-24T18:00:17.249Z,9.90
2019-03-24T18:02:46.521Z,9.80
2019-03-24T18:05:16.049Z,9.80
2019-03-24T18:07:45.318Z,9.70
2019-03-24T18:10:14.723Z,9.70
2019-03-24T18:12:43.988Z,9.60
2019-03-24T18:15:13.940Z,9.60
2019-03-24T18:17:43.221Z,9.50
2019-03-24T18:20:14.319Z,9.50
2019-03-24T18:22:43.573Z,9.40
2019-03-24T18:25:13.086Z,9.40
2019-03-24T18:27:42.348Z,9.30
2019-03-24T18:30:12.151Z,9.30
2019-03-24T18:32:41.428Z,9.20
2019-03-24T18:35:10.873Z,9.20
2019-03-24T18:37:41.122Z,9.10
2019-03-24T18:40:10.812Z,9.10
2019-03-24T18:42:40.081Z,9.00
2019-03-24T18:45:11.865Z,9.00
2019-03-24T18:47:42.263Z,8.90
2019-03-24T18:50:12.286Z,8.90
2019-03-24T18:52:42.528Z,8.90
2019-03-24T18:55:13.440Z,8.80
2019-03-24T18:57:42.708Z,8.70
2019-03-24T19:00:13.763Z,8.70
2019-03-24T19:02:43.057Z,8.60
2019-03-24T19:05:12.403Z,8.60
2019-03-24T19:07:42.639Z,8.50
2019-03-24T19:10:12.948Z,8.50
2019-03-24T19:12:42.221Z,8.40
2019-03-24T19:15:14.918Z,8.40
2019-03-24T19:17:44.266Z,8.30
2019-03-24T19:20:14.200Z,8.30
2019-03-24T19:22:43.465Z,8.30
2019-03-24T19:25:13.206Z,8.20
2019-03-24T19:27:42.468Z,8.20
2019-03-24T19:30:19.810Z,8.10
2019-03-24T19:32:49.088Z,8.10
2019-03-24T19:35:18.371Z,8.10
2019-03-24T19:37:47.638Z,8.10
2019-03-24T19:40:31.026Z,8.00
2019-03-24T19:43:00.281Z,8.00
2019-03-24T19:45:29.563Z,8.00
2019-03-24T19:47:59.807Z,8.00
2019-03-24T19:50:29.088Z,7.90
2019-03-24T19:52:58.348Z,7.90
2019-03-24T19:55:27.623Z,7.90
2019-03-24T19:57:56.889Z,7.90
2019-03-24T20:00:26.185Z,7.90
2019-03-24T20:02:55.451Z,7.90
2019-03-24T20:05:26.862Z,7.80
2019-03-24T20:07:55.774Z,7.80
2019-03-24T20:10:25.045Z,7.80
2019-03-24T20:12:54.325Z,7.80
2019-03-24T20:15:23.613Z,7.70
2019-03-24T20:17:53.948Z,7.70
2019-03-24T20:20:23.237Z,7.70
2019-03-24T20:22:56.743Z,7.60
2019-03-24T20:25:23.483Z,7.60
2019-03-24T20:27:52.752Z,7.50
2019-03-24T20:30:22.050Z,7.50
2019-03-24T20:32:51.327Z,7.50
2019-03-24T20:35:20.602Z,7.40
2019-03-24T20:37:49.890Z,7.40
2019-03-24T20:40:19.168Z,7.40
2019-03-24T20:42:48.456Z,7.40
2019-03-24T20:45:17.803Z,7.40
2019-03-24T20:47:47.099Z,7.30
2019-03-24T20:50:16.412Z,7.30
2019-03-24T20:52:45.688Z,7.20
2019-03-24T20:55:15.035Z,7.20
2019-03-24T20:57:44.402Z,7.20
2019-03-24T21:00:14.107Z,7.20
2019-03-24T21:02:43.885Z,7.20
2019-03-24T21:05:13.173Z,7.10
2019-03-24T21:07:42.449Z,7.10
2019-03-24T21:10:11.866Z,7.10
2019-03-24T21:12:41.155Z,7.10
2019-03-24T21:15:11.638Z,7.10
2019-03-24T21:17:42.185Z,7.10
2019-03-24T21:20:11.625Z,7.00
2019-03-24T21:22:40.939Z,7.00
2019-03-24T21:25:10.961Z,7.00
2019-03-24T21:27:40.252Z,7.00
2019-03-24T21:30:11.072Z,6.90
2019-03-24T21:32:40.353Z,6.90
2019-03-24T21:35:09.789Z,6.90
2019-03-24T21:37:39.060Z,6.80
2019-03-24T21:40:08.410Z,6.80
2019-03-24T21:42:37.689Z,6.70
2019-03-24T21:45:08.204Z,6.70
2019-03-24T21:47:37.484Z,6.70
2019-03-24T21:50:07.629Z,6.60
2019-03-24T21:52:36.900Z,6.60
2019-03-24T21:55:06.727Z,6.60
2019-03-24T21:57:35.985Z,6.50
2019-03-24T22:00:09.875Z,6.40
2019-03-24T22:02:40.311Z,6.40
2019-03-24T22:05:09.769Z,6.40
2019-03-24T22:07:39.037Z,6.40
2019-03-24T22:10:08.376Z,6.30
2019-03-24T22:12:37.651Z,6.30
2019-03-24T22:15:10.007Z,6.20
2019-03-24T22:17:39.276Z,6.10
2019-03-24T22:20:08.687Z,6.10
2019-03-24T22:22:37.958Z,6.00
2019-03-24T22:25:07.401Z,6.00
2019-03-24T22:27:36.675Z,5.90
2019-03-24T22:30:10.492Z,5.90
2019-03-24T22:32:39.756Z,5.90
2019-03-24T22:35:09.109Z,5.80
2019-03-24T22:37:38.369Z,5.80
2019-03-24T22:40:08.785Z,5.80
2019-03-24T22:42:38.049Z,5.70
2019-03-24T22:45:07.661Z,5.70
2019-03-24T22:47:36.923Z,5.70
2019-03-24T22:50:07.843Z,5.70
2019-03-24T22:52:37.364Z,5.60
2019-03-24T22:55:08.273Z,5.50
2019-03-24T22:57:37.534Z,5.50
2019-03-24T23:00:10.594Z,5.50
2019-03-24T23:02:41.205Z,5.40
2019-03-24T23:05:10.548Z,5.40
2019-03-24T23:07:39.824Z,5.40
2019-03-24T23:10:09.340Z,5.40
2019-03-24T23:12:38.600Z,5.30
2019-03-24T23:15:07.940Z,5.30
2019-03-24T23:17:37.209Z,5.30
2019-03-24T23:20:06.818Z,5.30
2019-03-24T23:22:36.087Z,5.30
2019-03-24T23:25:07.311Z,5.20
2019-03-24T23:27:36.568Z,5.30
2019-03-24T23:30:09.393Z,5.20
2019-03-24T23:32:38.668Z,5.20
2019-03-24T23:35:09.674Z,5.20
2019-03-24T23:37:38.950Z,5.20
2019-03-24T23:40:08.765Z,5.20
2019-03-24T23:42:38.053Z,5.20
2019-03-24T23:45:07.968Z,5.20
2019-03-24T23:47:37.235Z,5.20
2019-03-24T23:50:06.856Z,5.20
2019-03-24T23:52:37.094Z,5.20
2019-03-24T23:55:06.596Z,5.20
2019-03-24T23:57:35.856Z,5.20
